Ash Shaykh Uthman, Yemen
Current Conditions -  °F | °C
As of 3:00 PM on Tuesday 21 Oct 2014 (Local Time) from OYAA Reporting Station
Few Clouds Few Clouds  
Wind Chill: 88°   Ceiling: Unl
Heat Index: 88°   Visibility: 6mi
Dew Point: 57°   Wind: 16mph
Humidity: 35%   Direction: 140°SE
Pressure: 29.83"   Gusts: NA
Location:  12.87°N, 44.98°E
Report Text: OYAA 211200Z 14014KT 9999 FEW018 31/14 Q1010
Loading
Personal Weather Stations






























Interactive Weather Map
Tropical Storm Tracking
New forecast layout! Learn more

10-Day Weather Forecast

Advertisements
Track Severe Weather on mobile